Latest Weather Observations for Albury

IDN60801

Issued at 2:32 pm EST Saturday 4 July 2015 (issued every 30 minutes, with the page automatically refreshed every 10 minutes)

About weather observations | Map of weather stations | Latest weather observations for NSW | Other Formats
Station Details ID: 072160 Name: ALBURY AIRPORT AWS Lat: -36.07 Lon: 146.95 Height: 163.5 m
Data from the previous 72 hours. | See also: Recent months at Albury
Date/Time
EST
Temp
°C
App
Temp
°C
Dew
Point
Rel
Hum
%
Delta-T
°C
Wind Press
QNH
hPa
Press
MSL
hPa
Rain
since 9 am
mm
Dir
 
Spd
km/h
Gust
km/h
Spd
kts
Gust
kts
04/02:30pm 11.1 7.0 2.4 55 3.8 WNW 13 19 7 10 1023.5 1023.8 0.0
04/02:00pm 10.6 7.3 2.7 58 3.4 W 9 22 5 12 1023.7 1024.0 0.0
04/01:30pm 10.4 6.6 2.0 56 3.6 WSW 11 19 6 10 1023.9 1024.2 0.0
04/01:00pm 10.8 6.8 3.1 59 3.4 W 13 19 7 10 1024.1 1024.4 0.0
04/12:30pm 10.4 7.1 2.7 59 3.3 W 9 15 5 8 1024.4 1024.7 0.0
04/12:00pm 8.9 6.1 2.3 63 2.8 NW 6 9 3 5 1024.7 1025.1 0.0
04/11:30am 7.8 5.5 2.5 69 2.2 ENE 4 7 2 4 1025.5 1025.9 0.0
04/10:30am 5.5 2.8 2.8 83 1.1 E 6 9 3 5 1026.3 1026.7 0.0
04/10:00am 4.5 2.6 3.0 90 0.6 SSE 2 6 1 3 1026.2 1026.6 0.0
04/09:00am 2.6 0.9 1.7 94 0.3 CALM 0 0 0 0 1025.9 1026.3 0.0
04/08:30am 1.9 0.1 1.2 95 0.3 CALM 0 0 0 0 1025.9 1026.3 0.0
04/08:00am 1.6 -0.2 0.9 95 0.3 CALM 0 0 0 0 1025.6 1026.0 0.0
04/07:30am 1.4 -0.5 0.7 95 0.3 CALM 0 0 0 0 1025.5 1025.9 0.0
04/07:00am 1.4 -0.9 0.5 94 0.3 ENE 2 6 1 3 1025.1 1025.5 0.0
04/06:30am 1.3 -1.8 0.4 94 0.3 ENE 6 7 3 4 1025.1 1025.5 0.0
04/06:00am 1.2 -0.8 0.2 93 0.4 CALM 0 0 0 0 1025.0 1025.4 0.0
04/05:30am 1.5 -0.4 0.6 94 0.3 CALM 0 0 0 0 1024.8 1025.2 0.0
04/05:00am 1.8 -0.4 0.9 94 0.3 ENE 2 6 1 3 1024.5 1024.9 0.0
04/04:30am 1.7 -0.2 0.8 94 0.3 CALM 0 0 0 0 1024.7 1025.1 0.0
04/04:00am 1.7 -0.2 0.8 94 0.3 CALM 0 0 0 0 1024.6 1025.0 0.0
04/03:30am 1.2 -0.8 0.2 93 0.4 CALM 0 0 0 0 1024.8 1025.2 0.0
04/03:00am 1.5 -0.4 0.3 92 0.4 CALM 0 0 0 0 1025.0 1025.4 0.0
04/02:30am 2.2 -1.0 1.0 92 0.5 E 7 9 4 5 1025.1 1025.5 0.0
04/02:00am 1.8 0.0 0.9 94 0.3 CALM 0 0 0 0 1025.8 1026.2 0.0
04/01:30am 1.7 -0.2 0.7 93 0.4 CALM 0 0 0 0 1025.6 1026.0 0.0
04/01:00am 1.7 -0.2 0.7 93 0.4 CALM 0 0 0 0 1025.7 1026.1 0.0
04/12:30am 1.9 0.1 0.9 93 0.4 CALM 0 0 0 0 1026.0 1026.4 0.0
04/12:00am 1.6 -0.3 0.6 93 0.4 CALM 0 6 0 3 1026.2 1026.6 0.0
 
Date/Time
EST
Temp
°C
App
Temp
°C
Dew
Point
Rel
Hum
%
Delta-T
°C
Wind Press
QNH
hPa
Press
MSL
hPa
Rain
since 9 am
mm
Dir
 
Spd
km/h
Gust
km/h
Spd
kts
Gust
kts
03/11:30pm 2.0 0.2 1.1 94 0.3 CALM 0 0 0 0 1026.1 1026.5 0.0
03/11:00pm 1.8 -1.2 0.6 92 0.4 E 6 9 3 5 1026.3 1026.7 0.0
03/10:30pm 1.9 0.0 0.7 92 0.5 CALM 0 0 0 0 1026.3 1026.7 0.0
03/10:00pm 1.9 0.0 0.7 92 0.4 CALM 0 0 0 0 1026.5 1026.9 0.0
03/09:30pm 2.1 0.3 0.9 92 0.5 CALM 0 0 0 0 1026.6 1027.0 0.0
03/09:00pm 1.9 0.0 0.4 90 0.6 CALM 0 0 0 0 1026.5 1026.9 0.0
03/08:30pm 2.7 0.9 1.4 91 0.5 CALM 0 0 0 0 1026.6 1027.0 0.0
03/08:00pm 2.9 1.1 1.1 88 0.7 CALM 0 0 0 0 1026.7 1027.1 0.0
03/07:30pm 4.0 2.2 1.4 83 1.0 CALM 0 0 0 0 1026.6 1027.0 0.0
03/07:00pm 5.8 3.7 1.7 75 1.6 NW 2 6 1 3 1026.7 1027.1 0.0
03/06:30pm 6.5 3.2 2.2 74 1.8 NNW 9 11 5 6 1026.7 1027.1 0.0
03/06:00pm 6.4 4.0 2.1 74 1.8 NNW 4 9 2 5 1026.7 1027.1 0.0
03/05:30pm 7.1 4.3 2.0 70 2.1 NNW 6 7 3 4 1026.5 1026.9 0.0
03/05:00pm 7.8 4.8 1.0 62 2.7 WNW 6 7 3 4 1026.4 1026.8 0.0
03/04:30pm 8.7 5.6 0.4 56 3.4 WNW 6 7 3 4 1026.3 1026.7 0.0
03/04:00pm 8.9 5.2 0.1 54 3.5 NW 9 11 5 6 1026.4 1026.8 0.0
03/03:30pm 10.6 6.5 -0.5 46 4.5 NNW 11 17 6 9 1026.5 1026.9 0.0
03/03:00pm 10.8 6.3 -0.3 46 4.5 NNW 13 17 7 9 1026.3 1026.7 0.0
03/02:30pm 10.5 7.6 1.3 53 3.9 NNE 6 11 3 6 1026.0 1026.4 0.0
03/02:00pm 10.2 7.4 2.1 57 3.4 ENE 6 13 3 7 1026.2 1026.6 0.0
03/01:30pm 9.3 6.4 1.5 58 3.3 ESE 6 9 3 5 1026.4 1026.8 0.0
03/01:00pm 9.2 6.4 2.3 62 2.9 E 6 11 3 6 1026.7 1027.1 0.0
03/12:30pm 8.8 6.0 1.9 62 2.9 E 6 9 3 5 1027.4 1027.8 0.0
03/12:00pm 7.1 4.3 2.0 70 2.1 E 6 9 3 5 1027.8 1028.2 0.0
03/11:30am 6.7 3.3 1.6 70 2.1 ENE 9 13 5 7 1028.3 1028.7 0.0
03/11:00am 6.2 3.4 2.1 75 1.7 ENE 6 9 3 5 1028.9 1029.2 0.0
03/10:30am 5.5 3.3 1.2 74 1.7 N 2 7 1 4 1029.2 1029.5 0.0
03/10:00am 4.4 1.4 1.1 79 1.3 NE 6 9 3 5 1029.1 1029.4 0.0
03/09:30am 3.7 1.8 0.7 81 1.2 CALM 0 0 0 0 1028.9 1029.2 0.0
03/09:00am 2.5 0.6 0.6 87 0.7 CALM 0 0 0 0 1028.7 1029.0 0.8
03/08:30am -0.3 -2.5 -1.3 93 0.3 CALM 0 0 0 0 1028.6 1028.9 0.6
03/08:00am -1.3 -3.6 -2.0 95 0.2 CALM 0 0 0 0 1028.4 1028.8 0.6
03/07:30am -1.8 -4.9 -2.5 95 0.2 NE 4 7 2 4 1028.3 1028.7 0.6
03/07:00am -1.6 -4.3 -2.4 94 0.2 N 2 7 1 4 1028.1 1028.5 0.6
03/06:30am -1.5 -3.8 -2.3 94 0.2 CALM 0 0 0 0 1027.8 1028.2 0.6
03/06:00am -1.1 -3.7 -1.8 95 0.2 NNE 2 7 1 4 1027.6 1028.0 0.6
03/05:30am -1.5 -4.2 -2.3 94 0.2 NNW 2 7 1 4 1027.4 1027.8 0.6
03/05:00am -1.8 -5.3 -2.8 93 0.3 NW 6 9 3 5 1027.4 1027.8 0.6
03/04:30am -1.3 -4.7 -2.3 93 0.3 NE 6 7 3 4 1027.1 1027.5 0.6
03/04:00am -0.9 -3.1 -1.7 94 0.2 CALM 0 0 0 0 1027.2 1027.6 0.6
03/03:30am -1.0 -3.6 -1.8 94 0.2 NNE 2 7 1 4 1027.2 1027.6 0.6
03/03:00am -1.0 -3.6 -2.0 93 0.3 NW 2 9 1 5 1027.4 1027.8 0.6
03/02:30am -0.8 -4.1 -1.6 94 0.2 NW 6 7 3 4 1027.6 1028.0 0.6
03/02:00am -0.3 -3.2 -0.9 96 0.2 NE 4 6 2 3 1027.6 1028.0 0.6
03/01:30am -0.3 -3.2 -1.3 93 0.3 E 4 7 2 4 1027.5 1027.9 0.6
03/01:00am 0.3 -2.6 -0.8 92 0.4 ENE 4 7 2 4 1027.4 1027.8 0.6
03/12:30am 0.4 -2.9 -0.9 91 0.5 NNE 6 7 3 4 1027.4 1027.8 0.6
03/12:00am 0.4 -2.1 -0.9 91 0.5 S 2 9 1 5 1027.6 1028.0 0.6
 
Date/Time
EST
Temp
°C
App
Temp
°C
Dew
Point
Rel
Hum
%
Delta-T
°C
Wind Press
QNH
hPa
Press
MSL
hPa
Rain
since 9 am
mm
Dir
 
Spd
km/h
Gust
km/h
Spd
kts
Gust
kts
02/11:30pm 1.3 -0.7 -0.2 90 0.5 CALM 0 0 0 0 1027.4 1027.8 0.6
02/11:00pm 1.7 -1.1 -0.5 85 0.8 SSE 4 7 2 4 1027.4 1027.8 0.6
02/10:30pm 2.2 -1.6 -1.1 79 1.2 E 9 13 5 7 1027.0 1027.4 0.6
02/10:00pm 4.3 1.3 1.0 79 1.3 W 6 7 3 4 1026.9 1027.3 0.6
02/09:30pm 4.0 1.0 1.0 81 1.2 N 6 9 3 5 1026.8 1027.2 0.6
02/09:00pm 3.9 0.8 0.2 77 1.4 WNW 6 7 3 4 1026.6 1027.0 0.6
02/08:30pm 5.4 1.7 0.2 69 2.0 SW 9 13 5 7 1026.4 1026.8 0.6
02/08:00pm 6.5 1.0 0.6 66 2.3 WSW 19 24 10 13 1025.8 1026.2 0.6
02/07:30pm 6.3 1.2 0.6 67 2.3 WSW 17 20 9 11 1025.6 1026.0 0.6
02/07:00pm 5.7 1.3 0.5 69 2.0 WSW 13 17 7 9 1025.5 1025.9 0.6
02/06:30pm 7.6 3.1 -0.1 58 3.0 SW 13 17 7 9 1024.7 1025.1 0.6
02/06:00pm 8.6 3.4 -0.2 54 3.5 SW 17 26 9 14 1024.6 1025.0 0.6
02/05:30pm 8.7 2.9 0.2 55 3.4 WSW 20 26 11 14 1024.4 1024.7 0.6
02/05:00pm 9.3 3.9 1.5 58 3.2 WSW 19 28 10 15 1023.7 1024.0 0.6
02/04:30pm 10.3 4.7 1.2 53 3.8 SW 20 35 11 19 1023.1 1023.4 0.6
02/04:00pm 10.9 4.5 1.2 51 4.1 WSW 24 32 13 17 1022.8 1023.1 0.6
02/03:30pm 11.5 5.3 2.0 52 4.1 SW 24 37 13 20 1022.3 1022.6 0.6
02/03:00pm 11.3 4.3 1.8 52 4.1 SW 28 39 15 21 1021.7 1022.1 0.6
02/02:30pm 12.1 6.6 4.1 58 3.6 SW 22 37 12 20 1021.4 1021.8 0.6
02/02:00pm 11.3 5.9 4.7 64 3.0 WSW 22 30 12 16 1020.9 1021.3 0.6
02/01:30pm 9.3 2.1 4.9 74 2.0 W 32 50 17 27 1020.9 1021.3 0.6
02/01:16pm 10.6 3.3 4.7 67 2.7 WSW 32 44 17 24 1021.0 1021.4 0.6
02/01:00pm 10.7 6.5 5.7 71 2.3 WSW 17 26 9 14 1020.8 1021.2 0.6
02/12:52pm 10.6 7.1 5.4 70 2.4 WSW 13 26 7 14 1020.9 1021.3 0.6
02/12:30pm 10.1 8.1 6.4 78 1.7 N 6 11 3 6 1021.1 1021.5 0.6
02/12:00pm 9.2 7.9 6.1 81 1.4 N 2 11 1 6 1021.1 1021.5 0.6
02/11:30am 8.0 4.9 5.6 85 1.1 WSW 11 15 6 8 1022.3 1022.6 0.6
02/11:00am 7.8 5.5 5.6 86 1.0 W 7 13 4 7 1022.3 1022.6 0.6
02/10:30am 7.2 4.0 5.0 86 1.0 W 11 17 6 9 1022.6 1022.9 0.6
02/10:00am 7.0 3.4 5.0 87 0.9 NW 13 17 7 9 1022.4 1022.7 0.6
02/09:36am 6.8 3.6 5.1 89 0.8 NNW 11 15 6 8 1022.3 1022.6 0.6
02/09:30am 6.8 3.6 5.1 89 0.8 NNW 11 15 6 8 1022.3 1022.6 0.6
02/09:16am 6.8 4.0 5.0 88 0.8 NNW 9 13 5 7 1022.3 1022.6 0.4
02/09:09am 6.8 4.3 4.6 86 1.0 NNW 7 11 4 6 1022.3 1022.6 0.2
02/09:00am 6.9 4.4 4.9 87 0.9 N 7 9 4 5 1022.0 1022.4 1.0
02/08:30am 6.8 5.6 4.5 85 1.0 CALM 0 0 0 0 1022.0 1022.4 -
02/08:00am 7.0 4.6 4.1 82 1.3 NNW 6 11 3 6 1022.3 1022.6 -
02/07:30am 7.0 3.9 3.8 80 1.4 N 9 13 5 7 1022.2 1022.5 -
02/07:00am 6.9 3.8 3.7 80 1.4 N 9 11 5 6 1022.2 1022.5 -
02/06:30am 6.6 3.7 4.4 86 1.0 NNE 9 13 5 7 1022.3 1022.6 -
02/06:00am 6.6 4.2 4.3 85 1.0 ENE 6 7 3 4 1022.4 1022.7 -
02/05:30am 6.5 4.0 4.5 87 0.9 NE 7 11 4 6 1022.3 1022.6 -
02/05:00am 6.6 4.0 4.4 86 1.0 NE 7 9 4 5 1022.5 1022.8 -
02/04:30am 6.4 3.5 4.6 88 0.8 NE 9 11 5 6 1022.9 1023.2 -
02/04:11am 6.4 4.1 4.9 90 0.7 ENE 6 9 3 5 1023.2 1023.5 -
02/04:01am 6.2 5.0 4.7 90 0.7 CALM 0 4 0 2 1023.3 1023.6 -
02/04:00am 6.2 5.0 4.7 90 0.7 CALM 0 4 0 2 1023.3 1023.6 -
02/03:30am 6.5 4.6 4.7 88 0.8 ESE 4 6 2 3 1023.7 1024.0 -
02/03:00am 6.8 5.2 4.3 84 1.1 N 2 7 1 4 1023.9 1024.2 0.0
02/02:30am 5.9 4.7 4.5 91 0.6 CALM 0 0 0 0 1024.3 1024.6 -
02/02:00am 6.0 4.8 4.6 91 0.6 CALM 0 6 0 3 1024.3 1024.6 -
02/01:30am 5.7 4.4 4.3 91 0.6 CALM 0 0 0 0 1024.5 1024.9 -
02/01:00am 5.4 4.1 4.1 91 0.6 CALM 0 0 0 0 1024.7 1025.1 -
02/12:30am 5.7 4.4 4.3 91 0.6 CALM 0 0 0 0 1024.9 1025.3 -
02/12:00am 5.4 4.1 4.1 91 0.6 CALM 0 0 0 0 1025.2 1025.6 -
 
Date/Time
EST
Temp
°C
App
Temp
°C
Dew
Point
Rel
Hum
%
Delta-T
°C
Wind Press
QNH
hPa
Press
MSL
hPa
Rain
since 9 am
mm
Dir
 
Spd
km/h
Gust
km/h
Spd
kts
Gust
kts
01/11:30pm 5.4 4.1 4.2 92 0.5 CALM 0 0 0 0 1025.4 1025.8 -
01/11:00pm 5.1 3.7 3.8 91 0.5 CALM 0 0 0 0 1025.2 1025.6 -
01/10:30pm 4.9 3.5 3.4 90 0.6 CALM 0 0 0 0 1025.3 1025.7 -
01/10:00pm 5.6 3.9 3.9 89 0.7 ENE 2 6 1 3 1025.5 1025.9 -
01/09:30pm 6.5 4.1 4.2 85 1.0 ESE 6 7 3 4 1025.5 1025.9 -
01/09:00pm 7.0 4.4 4.0 81 1.3 NE 7 7 4 4 1025.7 1026.1 0.0
01/08:30pm 8.0 5.7 4.6 79 1.5 NNW 6 9 3 5 1026.0 1026.4 -
01/08:00pm 8.0 5.7 4.6 79 1.5 N 6 7 3 4 1026.1 1026.5 -
01/07:30pm 8.2 5.6 4.4 77 1.7 NNW 7 9 4 5 1026.0 1026.4 -
01/07:00pm 8.5 7.2 3.9 73 2.0 CALM 0 2 0 1 1025.6 1026.0 -
01/06:30pm 8.4 5.7 3.7 72 2.0 WSW 7 9 4 5 1025.8 1026.2 -
01/06:00pm 8.7 5.6 3.5 70 2.2 W 9 13 5 7 1025.8 1026.2 -
01/05:30pm 9.1 6.0 3.7 69 2.4 WNW 9 13 5 7 1025.8 1026.2 -
01/05:00pm 9.3 6.2 3.7 68 2.4 WNW 9 15 5 8 1025.6 1026.0 -
01/04:30pm 9.7 5.9 3.9 67 2.6 WNW 13 17 7 9 1025.9 1026.3 -
01/04:00pm 9.9 6.6 4.3 68 2.5 WNW 11 15 6 8 1025.8 1026.2 -
01/03:30pm 10.3 7.4 4.5 67 2.6 WNW 9 15 5 8 1026.0 1026.4 -
01/03:03pm 9.8 7.2 4.2 68 2.5 NNW 7 11 4 6 1025.6 1026.0 -
01/03:00pm 10.1 7.7 4.5 68 2.5 NNW 6 11 3 6 1025.7 1026.1 0.6
01/02:45pm 10.5 7.6 4.9 68 2.6 NNW 9 15 5 8 1025.7 1026.1 -
01/02:44pm 10.3 7.4 4.7 68 2.5 NNW 9 15 5 8 1025.7 1026.1 -

Other Formats:

Comma delimited format used in spreadsheet applications
http://www.bom.gov.au/fwo/IDN60801/IDN60801.95896.axf

JavaScript Object Notation format (JSON) in row-major order
http://www.bom.gov.au/fwo/IDN60801/IDN60801.95896.json